Time;durP1;ratioP1;P1;durP2;ratioP2;P2;SDS_P1;SDS_P2;PMS_P1;PMS_P2;Temp;Humidity;BMP_temperature;BMP_pressure;BME280_temperature;BME280_humidity;BME280_pressure;Samples;Min_cycle;Max_cycle;Signal;HPM_P1;HPM_P2
2023/07/06 00:02:03;;;;;;;9.30;7.23;;;24.00;90.00;;;;;;5044702;28;20298;-63
2023/07/06 00:04:30;;;;;;;9.07;6.87;;;24.00;90.20;;;;;;5039517;28;20555;-63
2023/07/06 00:06:58;;;;;;;10.77;6.73;;;24.00;90.30;;;;;;5041970;28;20213;-62
2023/07/06 00:09:25;;;;;;;11.30;7.10;;;24.00;90.30;;;;;;5044764;28;20208;-62
2023/07/06 00:11:52;;;;;;;10.70;7.00;;;24.00;90.30;;;;;;5036968;28;20210;-62
2023/07/06 00:14:19;;;;;;;7.23;5.63;;;24.00;90.40;;;;;;5036273;28;20563;-63
2023/07/06 00:16:47;;;;;;;7.47;6.73;;;24.00;90.50;;;;;;5036692;28;20203;-62
2023/07/06 00:19:19;;;;;;;11.33;6.80;;;24.00;90.50;;;;;;5042273;28;20201;-62
2023/07/06 00:22:06;;;;;;;8.73;6.60;;;24.00;90.60;;;;;;5043950;28;20561;-62
2023/07/06 00:24:33;;;;;;;7.70;6.90;;;24.00;90.70;;;;;;5046336;28;20198;-62
2023/07/06 00:27:18;;;;;;;6.73;5.87;;;24.00;90.80;;;;;;5049294;28;20273;-63
2023/07/06 00:30:40;;;;;;;15.40;6.97;;;24.00;90.70;;;;;;5041671;28;20540;-63
2023/07/06 00:32:35;;;;;;;7.50;6.17;;;24.00;90.80;;;;;;5034728;28;20207;-62
2023/07/06 00:35:04;;;;;;;6.87;5.83;;;24.00;90.90;;;;;;5037765;28;20207;-62
2023/07/06 00:37:31;;;;;;;8.27;6.93;;;24.00;90.90;;;;;;5039488;28;20292;-63
2023/07/06 00:39:58;;;;;;;8.47;6.23;;;24.00;90.90;;;;;;5040510;28;20205;-62
2023/07/06 00:42:25;;;;;;;12.30;6.83;;;24.00;90.90;;;;;;5041644;28;20202;-62
2023/07/06 00:45:01;;;;;;;7.60;5.90;;;24.00;91.00;;;;;;5043854;28;20203;-62
2023/07/06 00:47:42;;;;;;;8.70;6.57;;;24.00;91.00;;;;;;5031428;28;20206;-62
2023/07/06 00:50:17;;;;;;;6.73;6.13;;;24.00;91.10;;;;;;5038385;28;20228;-63
2023/07/06 00:52:49;;;;;;;9.57;6.40;;;24.00;91.10;;;;;;5043197;28;20265;-62
2023/07/06 00:55:19;;;;;;;11.50;6.67;;;24.00;91.10;;;;;;5046258;28;20671;-62
2023/07/06 00:57:51;;;;;;;7.23;6.60;;;24.00;91.10;;;;;;5031728;28;20218;-62
2023/07/06 01:00:21;;;;;;;7.93;6.23;;;24.00;91.20;;;;;;5057239;28;20612;-62
2023/07/06 01:02:52;;;;;;;6.63;6.03;;;23.90;91.20;;;;;;5036895;28;20271;-63
2023/07/06 01:05:23;;;;;;;9.27;6.73;;;24.00;91.30;;;;;;5042750;28;20666;-62
2023/07/06 01:07:54;;;;;;;6.33;5.73;;;24.00;91.30;;;;;;5042735;28;20222;-62
2023/07/06 01:10:21;;;;;;;7.67;6.13;;;24.00;91.30;;;;;;5040814;28;20198;-62
2023/07/06 01:12:48;;;;;;;8.37;6.57;;;24.00;91.30;;;;;;5032357;28;20211;-63
2023/07/06 01:15:21;;;;;;;6.90;6.27;;;24.00;91.30;;;;;;5037460;28;20302;-62
2023/07/06 01:18:03;;;;;;;7.07;5.50;;;24.10;91.40;;;;;;5029298;28;20528;-62
2023/07/06 01:20:44;;;;;;;6.97;5.43;;;24.10;91.40;;;;;;5039353;28;20717;-62
2023/07/06 01:23:53;;;;;;;17.20;7.07;;;24.10;91.40;;;;;;5028904;28;20196;-62
2023/07/06 01:26:53;;;;;;;11.87;6.47;;;24.20;91.40;;;;;;5037229;28;20237;-62
2023/07/06 01:30:00;;;;;;;8.70;6.03;;;24.10;91.20;;;;;;5006608;28;20219;-62
2023/07/06 01:32:32;;;;;;;11.20;6.33;;;24.10;91.40;;;;;;5042810;28;20204;-63
2023/07/06 01:35:20;;;;;;;7.30;6.30;;;24.10;91.50;;;;;;5038818;28;20211;-62
2023/07/06 01:37:47;;;;;;;6.93;6.23;;;24.00;91.70;;;;;;5035249;28;20203;-63
2023/07/06 01:40:14;;;;;;;9.20;7.10;;;24.00;91.70;;;;;;5032534;28;20211;-62
2023/07/06 01:42:42;;;;;;;9.67;7.47;;;24.00;91.70;;;;;;5046504;28;20199;-62
2023/07/06 01:45:21;;;;;;;11.07;6.67;;;24.00;91.80;;;;;;5040889;28;20203;-62
2023/07/06 01:48:13;;;;;;;6.37;5.47;;;24.00;92.00;;;;;;5044548;28;20192;-62
2023/07/06 01:50:53;;;;;;;5.93;4.37;;;24.00;91.90;;;;;;5024247;28;20214;-63
2023/07/06 01:53:56;;;;;;;5.23;3.63;;;23.90;91.50;;;;;;5047284;28;20213;-62
2023/07/06 01:57:04;;;;;;;4.20;3.80;;;23.90;90.90;;;;;;5048195;28;20194;-62
2023/07/06 01:59:35;;;;;;;5.77;2.90;;;23.80;90.30;;;;;;5049393;28;20203;-62
2023/07/06 02:02:07;;;;;;;5.30;3.20;;;23.80;89.20;;;;;;5043347;28;20646;-62
2023/07/06 02:04:37;;;;;;;4.37;2.70;;;23.70;88.20;;;;;;5034986;28;20210;-63
2023/07/06 02:07:07;;;;;;;4.23;2.30;;;23.70;87.30;;;;;;5046651;28;20205;-62
2023/07/06 02:09:46;;;;;;;3.93;2.40;;;23.60;87.20;;;;;;5043880;28;20199;-62
2023/07/06 02:12:13;;;;;;;3.93;2.50;;;23.50;87.40;;;;;;5028634;28;20210;-62
2023/07/06 02:14:42;;;;;;;4.77;2.77;;;23.40;87.10;;;;;;5044883;28;20221;-62
2023/07/06 02:17:11;;;;;;;3.47;2.20;;;23.40;86.70;;;;;;5039640;28;20295;-62
2023/07/06 02:19:38;;;;;;;5.33;2.27;;;23.30;86.20;;;;;;5029131;28;20802;-62
2023/07/06 02:22:06;;;;;;;3.77;2.63;;;23.30;86.50;;;;;;5035383;28;20207;-62
2023/07/06 02:24:36;;;;;;;4.47;2.17;;;23.20;86.30;;;;;;5036041;28;20209;-62
2023/07/06 02:27:05;;;;;;;8.33;2.37;;;23.10;86.30;;;;;;5041625;28;20692;-62
2023/07/06 02:29:33;;;;;;;2.87;2.50;;;23.10;86.40;;;;;;5043505;28;20231;-63
2023/07/06 02:32:02;;;;;;;4.83;2.40;;;23.00;86.20;;;;;;5046925;28;20540;-62
2023/07/06 02:34:29;;;;;;;4.20;2.40;;;23.00;86.20;;;;;;5047755;28;20575;-62
2023/07/06 02:36:59;;;;;;;3.17;2.50;;;22.90;86.40;;;;;;5048348;28;20538;-62
2023/07/06 02:39:27;;;;;;;5.30;2.70;;;22.90;86.70;;;;;;5046663;28;20530;-62
2023/07/06 02:41:56;;;;;;;4.33;2.43;;;22.90;86.90;;;;;;5048103;28;20256;-62
2023/07/06 02:44:24;;;;;;;5.73;3.00;;;22.90;86.90;;;;;;5044334;28;20249;-62
2023/07/06 02:46:52;;;;;;;5.07;2.57;;;22.90;87.00;;;;;;5040602;28;20215;-62
2023/07/06 02:49:19;;;;;;;2.50;2.00;;;22.90;87.20;;;;;;5042384;28;20203;-63
2023/07/06 02:51:46;;;;;;;3.93;2.77;;;22.90;87.10;;;;;;5044512;28;20633;-62
2023/07/06 02:54:15;;;;;;;5.43;3.10;;;22.90;87.00;;;;;;5026184;28;20557;-62
2023/07/06 02:56:43;;;;;;;3.97;2.10;;;22.90;86.90;;;;;;5035187;28;20214;-62
2023/07/06 02:59:10;;;;;;;3.47;2.43;;;22.80;86.90;;;;;;5032074;28;20225;-62
2023/07/06 03:01:38;;;;;;;2.70;2.33;;;22.80;87.20;;;;;;5047142;28;20269;-62
2023/07/06 03:04:09;;;;;;;4.53;2.47;;;22.80;87.50;;;;;;5040421;28;20194;-62
2023/07/06 03:06:38;;;;;;;4.33;2.67;;;22.70;87.70;;;;;;5024793;28;20532;-62
2023/07/06 03:09:09;;;;;;;4.23;2.53;;;22.70;87.90;;;;;;5047822;28;20222;-62
2023/07/06 03:11:37;;;;;;;5.10;2.30;;;22.70;88.20;;;;;;5060778;28;20209;-62
2023/07/06 03:14:05;;;;;;;6.70;2.57;;;22.70;88.40;;;;;;5024211;28;20290;-62
2023/07/06 03:16:39;;;;;;;4.17;2.60;;;22.70;88.50;;;;;;5029360;28;20536;-62
2023/07/06 03:19:14;;;;;;;7.77;2.70;;;22.70;88.50;;;;;;5045079;28;20544;-62
2023/07/06 03:21:41;;;;;;;5.03;2.97;;;22.70;88.70;;;;;;5044419;28;20195;-62
2023/07/06 03:24:09;;;;;;;5.70;2.37;;;22.60;89.00;;;;;;5033951;28;20290;-62
2023/07/06 03:26:37;;;;;;;3.97;2.40;;;22.60;89.30;;;;;;5040503;28;20562;-62
2023/07/06 03:29:05;;;;;;;3.70;2.80;;;22.60;89.50;;;;;;5040145;28;20639;-62
2023/07/06 03:31:33;;;;;;;4.53;2.10;;;22.70;89.70;;;;;;5059427;28;20199;-62
2023/07/06 03:34:01;;;;;;;2.47;2.20;;;22.70;89.70;;;;;;5060184;28;20226;-62
2023/07/06 03:36:28;;;;;;;4.20;2.40;;;22.70;89.70;;;;;;5038853;28;20227;-62
2023/07/06 03:38:57;;;;;;;4.57;2.70;;;22.70;89.80;;;;;;5028130;28;20290;-62
2023/07/06 03:41:24;;;;;;;7.07;2.77;;;22.70;89.60;;;;;;5040755;28;20194;-62
2023/07/06 03:43:56;;;;;;;3.23;2.27;;;22.70;89.50;;;;;;5028467;28;20286;-62
2023/07/06 03:46:25;;;;;;;3.77;2.50;;;22.60;89.40;;;;;;5046704;28;20202;-63
2023/07/06 03:48:55;;;;;;;2.90;2.40;;;22.60;89.50;;;;;;5037889;28;20211;-62
2023/07/06 03:51:22;;;;;;;4.77;2.63;;;22.60;89.50;;;;;;5042590;28;20543;-62
2023/07/06 03:53:49;;;;;;;4.37;2.40;;;22.60;89.60;;;;;;5031864;28;20577;-62
2023/07/06 03:56:18;;;;;;;5.63;2.53;;;22.60;89.70;;;;;;5045541;28;20590;-62
2023/07/06 03:58:45;;;;;;;5.10;2.40;;;22.60;89.90;;;;;;5040583;28;20207;-62
2023/07/06 04:01:12;;;;;;;4.93;2.37;;;22.60;90.00;;;;;;5036067;28;20245;-62
2023/07/06 04:03:39;;;;;;;4.40;2.67;;;22.60;90.10;;;;;;5038265;28;20227;-62
2023/07/06 04:06:06;;;;;;;3.40;2.70;;;22.60;90.10;;;;;;5041610;28;20289;-62
2023/07/06 04:08:35;;;;;;;5.10;2.53;;;22.60;90.10;;;;;;5044603;28;20203;-62
2023/07/06 04:11:02;;;;;;;3.57;2.27;;;22.60;90.20;;;;;;5044728;28;20211;-63
2023/07/06 04:13:29;;;;;;;4.70;2.40;;;22.60;90.40;;;;;;5046867;28;20198;-62
2023/07/06 04:15:57;;;;;;;2.60;2.37;;;22.60;90.50;;;;;;5048108;28;20248;-62
2023/07/06 04:18:26;;;;;;;3.90;2.27;;;22.60;90.60;;;;;;5045579;28;20286;-62
2023/07/06 04:20:54;;;;;;;3.43;2.83;;;22.70;90.80;;;;;;5041870;28;20199;-62
2023/07/06 04:23:22;;;;;;;7.67;2.73;;;22.70;90.80;;;;;;5038022;28;20195;-62
2023/07/06 04:25:49;;;;;;;6.00;2.63;;;22.70;90.80;;;;;;5024472;28;20214;-62
2023/07/06 04:28:16;;;;;;;3.23;2.30;;;22.70;90.80;;;;;;5037990;28;20325;-62
2023/07/06 04:30:45;;;;;;;5.60;2.67;;;22.80;90.90;;;;;;5043326;28;20203;-63
2023/07/06 04:33:19;;;;;;;3.50;2.30;;;22.80;90.90;;;;;;5042669;28;20203;-62
2023/07/06 04:35:51;;;;;;;5.50;2.50;;;22.80;90.90;;;;;;5040945;28;20662;-62
2023/07/06 04:38:20;;;;;;;3.57;2.30;;;22.80;90.80;;;;;;5039770;28;20194;-62
2023/07/06 04:40:50;;;;;;;7.27;2.30;;;22.80;90.80;;;;;;5042262;28;20707;-62
2023/07/06 04:43:17;;;;;;;4.57;2.90;;;22.90;90.80;;;;;;5044222;28;20202;-62
2023/07/06 04:45:45;;;;;;;6.17;2.50;;;22.90;90.80;;;;;;5046908;28;20715;-62
2023/07/06 04:48:12;;;;;;;5.33;2.43;;;22.90;90.70;;;;;;5045735;28;20200;-62
2023/07/06 04:50:43;;;;;;;2.40;2.20;;;22.90;90.70;;;;;;5040570;28;20697;-62
2023/07/06 04:53:10;;;;;;;4.00;2.60;;;22.90;90.80;;;;;;5040616;28;20199;-62
2023/07/06 04:55:37;;;;;;;2.73;2.37;;;23.00;90.80;;;;;;5047746;28;20272;-62
2023/07/06 04:58:05;;;;;;;3.07;1.80;;;23.00;90.80;;;;;;5039296;28;20634;-63
2023/07/06 05:00:37;;;;;;;4.47;2.50;;;23.20;90.90;;;;;;5034159;28;20199;-63
2023/07/06 05:03:06;;;;;;;6.10;2.50;;;23.30;90.80;;;;;;5036958;28;20241;-62
2023/07/06 05:05:42;;;;;;;6.77;2.77;;;23.40;90.70;;;;;;5033201;28;20238;-62
2023/07/06 05:08:15;;;;;;;3.13;2.50;;;23.50;90.60;;;;;;5043675;28;20198;-62
2023/07/06 05:10:50;;;;;;;4.13;2.50;;;23.60;90.60;;;;;;5039534;28;20748;-62
2023/07/06 05:13:21;;;;;;;3.73;2.37;;;23.70;90.50;;;;;;5042732;28;20213;-62
2023/07/06 05:15:49;;;;;;;6.33;3.00;;;23.70;90.40;;;;;;5026779;28;20307;-63
2023/07/06 05:18:21;;;;;;;5.97;3.57;;;23.80;90.30;;;;;;5041868;28;20206;-62
2023/07/06 05:20:51;;;;;;;3.50;2.90;;;23.80;90.20;;;;;;5047552;28;20282;-62
2023/07/06 05:23:19;;;;;;;4.27;2.97;;;23.80;90.20;;;;;;5043935;28;20202;-62
2023/07/06 05:25:50;;;;;;;4.77;2.83;;;23.80;90.30;;;;;;5049107;28;20257;-62
2023/07/06 05:28:19;;;;;;;4.57;2.40;;;23.80;90.30;;;;;;5036624;28;20660;-62
2023/07/06 05:30:47;;;;;;;5.60;2.60;;;23.90;90.30;;;;;;5046664;28;20279;-63
2023/07/06 05:33:15;;;;;;;5.13;2.50;;;23.90;90.30;;;;;;5041812;28;20237;-62
2023/07/06 05:35:42;;;;;;;4.27;2.30;;;23.90;90.00;;;;;;5044711;28;20211;-62
2023/07/06 05:38:10;;;;;;;4.70;2.60;;;23.90;90.00;;;;;;5039821;28;20206;-63
2023/07/06 05:40:43;;;;;;;4.10;2.40;;;23.90;89.90;;;;;;5046260;28;20551;-62
2023/07/06 05:43:10;;;;;;;4.27;2.57;;;24.00;90.20;;;;;;5051673;28;20568;-62
2023/07/06 05:45:40;;;;;;;3.70;2.37;;;24.00;89.80;;;;;;5047368;28;20213;-62
2023/07/06 05:48:07;;;;;;;4.13;2.43;;;24.00;89.80;;;;;;5043356;28;20211;-63
2023/07/06 05:50:34;;;;;;;3.23;2.50;;;24.10;89.90;;;;;;5044601;28;20209;-62
2023/07/06 05:53:02;;;;;;;5.27;2.63;;;24.10;89.60;;;;;;5045938;28;20268;-62
2023/07/06 05:55:32;;;;;;;3.30;2.37;;;24.20;89.50;;;;;;5046487;28;20222;-63
2023/07/06 05:57:59;;;;;;;3.33;2.63;;;24.30;89.50;;;;;;5046615;28;20520;-62
2023/07/06 06:00:26;;;;;;;4.30;2.20;;;24.40;89.50;;;;;;5040969;28;20204;-62
2023/07/06 06:02:54;;;;;;;4.53;2.13;;;24.50;89.30;;;;;;5047286;28;20211;-62
2023/07/06 06:05:21;;;;;;;4.33;2.17;;;24.70;88.40;;;;;;5044422;28;20196;-62
2023/07/06 06:07:48;;;;;;;4.20;2.37;;;24.80;87.60;;;;;;5044020;28;20203;-62
2023/07/06 06:10:15;;;;;;;4.47;2.13;;;25.00;87.20;;;;;;5042497;28;20202;-62
2023/07/06 06:12:44;;;;;;;4.67;1.90;;;25.20;85.40;;;;;;5041144;28;20221;-62
2023/07/06 06:15:11;;;;;;;2.80;2.00;;;25.30;84.70;;;;;;5039217;28;20237;-62
2023/07/06 06:17:40;;;;;;;4.10;2.37;;;25.30;83.80;;;;;;5042533;28;20193;-62
2023/07/06 06:20:10;;;;;;;2.37;1.93;;;25.30;83.70;;;;;;5046281;28;20286;-62
2023/07/06 06:22:37;;;;;;;2.70;2.27;;;25.30;83.40;;;;;;5041515;28;20192;-62
2023/07/06 06:25:05;;;;;;;4.80;2.60;;;25.20;83.10;;;;;;5041874;28;20228;-63
2023/07/06 06:27:32;;;;;;;3.13;2.20;;;25.10;82.80;;;;;;5044762;28;20297;-62
2023/07/06 06:30:00;;;;;;;5.53;2.90;;;25.10;83.20;;;;;;5040929;28;20202;-62
2023/07/06 06:32:29;;;;;;;2.50;2.30;;;25.00;83.30;;;;;;5043444;28;20245;-62
2023/07/06 06:34:59;;;;;;;6.70;2.37;;;25.00;83.50;;;;;;5041503;28;20222;-63
2023/07/06 06:37:27;;;;;;;5.53;2.93;;;25.00;84.30;;;;;;5037137;28;20649;-62
2023/07/06 06:39:54;;;;;;;2.60;2.40;;;25.10;84.20;;;;;;5044548;28;20604;-63
2023/07/06 06:42:24;;;;;;;7.93;3.33;;;25.20;83.80;;;;;;5046855;28;20191;-62
2023/07/06 06:44:51;;;;;;;3.53;2.47;;;25.40;83.50;;;;;;5043079;28;20349;-62
2023/07/06 06:47:18;;;;;;;3.63;2.60;;;25.50;83.90;;;;;;5042981;28;20204;-62
2023/07/06 06:49:45;;;;;;;5.47;2.37;;;25.70;83.70;;;;;;5037990;28;20202;-62
2023/07/06 06:52:12;;;;;;;2.83;2.13;;;25.80;82.50;;;;;;5057497;28;20211;-62
2023/07/06 06:54:40;;;;;;;4.63;2.33;;;25.90;81.80;;;;;;5044454;28;20203;-62
2023/07/06 06:57:07;;;;;;;3.13;2.53;;;26.00;80.50;;;;;;5044202;28;20212;-62
2023/07/06 06:59:35;;;;;;;2.93;1.90;;;25.90;80.70;;;;;;5039466;28;20211;-62
2023/07/06 07:02:06;;;;;;;5.13;2.90;;;26.00;80.90;;;;;;5043512;28;20199;-62
2023/07/06 07:04:38;;;;;;;2.80;2.60;;;26.00;80.00;;;;;;5047143;28;20577;-63
2023/07/06 07:07:06;;;;;;;3.40;2.07;;;26.10;80.80;;;;;;5046183;28;20590;-62
2023/07/06 07:09:33;;;;;;;5.17;2.43;;;26.20;81.50;;;;;;5043684;28;20210;-62
2023/07/06 07:12:00;;;;;;;3.37;2.27;;;26.40;81.80;;;;;;5045771;28;20205;-62
2023/07/06 07:14:29;;;;;;;3.00;2.10;;;26.60;81.30;;;;;;5038390;28;20207;-62
2023/07/06 07:16:59;;;;;;;3.40;2.50;;;26.80;79.40;;;;;;5028645;28;20241;-62
2023/07/06 07:19:28;;;;;;;2.30;2.10;;;26.80;78.50;;;;;;5044597;28;20203;-63
2023/07/06 07:21:57;;;;;;;3.03;2.30;;;26.90;78.50;;;;;;5041518;28;20574;-62
2023/07/06 07:24:25;;;;;;;3.10;2.40;;;26.90;78.10;;;;;;5042932;28;20195;-62
2023/07/06 07:26:52;;;;;;;2.50;2.30;;;26.90;78.60;;;;;;5041048;28;20242;-62
2023/07/06 07:29:20;;;;;;;5.70;2.53;;;26.90;78.20;;;;;;5042160;28;20286;-62
2023/07/06 07:31:49;;;;;;;2.43;2.17;;;26.90;77.60;;;;;;5044731;28;20657;-62
2023/07/06 07:34:18;;;;;;;5.10;2.33;;;26.80;78.00;;;;;;5048859;28;20259;-62
2023/07/06 07:36:45;;;;;;;4.70;2.30;;;26.90;78.90;;;;;;5048689;28;20609;-62
2023/07/06 07:39:14;;;;;;;3.23;2.13;;;27.20;78.90;;;;;;5048185;28;20214;-62
2023/07/06 07:41:43;;;;;;;3.30;1.80;;;27.40;78.70;;;;;;5041746;28;20657;-62
2023/07/06 07:44:12;;;;;;;1.87;1.60;;;27.70;74.70;;;;;;5042959;28;20261;-62
2023/07/06 07:46:39;;;;;;;2.63;2.30;;;27.70;75.60;;;;;;5037248;28;20199;-62
2023/07/06 07:49:07;;;;;;;3.37;2.73;;;27.70;75.00;;;;;;5037168;28;20209;-63
2023/07/06 07:51:34;;;;;;;3.00;2.27;;;27.70;74.80;;;;;;5038981;28;20225;-62
2023/07/06 07:54:01;;;;;;;2.83;2.53;;;27.60;74.60;;;;;;5044750;28;20212;-62
2023/07/06 07:56:30;;;;;;;3.67;1.87;;;27.40;75.50;;;;;;5040899;28;20669;-63
2023/07/06 07:58:58;;;;;;;3.70;2.30;;;27.30;76.00;;;;;;5038835;28;20218;-62
2023/07/06 08:01:25;;;;;;;4.17;2.50;;;27.30;76.30;;;;;;5040103;28;20191;-62
2023/07/06 08:03:54;;;;;;;3.33;2.17;;;27.30;76.80;;;;;;5039879;28;20547;-62
2023/07/06 08:06:22;;;;;;;3.43;2.27;;;27.20;76.80;;;;;;5043030;28;20297;-62
2023/07/06 08:08:50;;;;;;;3.83;1.80;;;27.30;77.10;;;;;;5045030;28;20298;-62
2023/07/06 08:11:24;;;;;;;3.50;1.70;;;27.30;77.30;;;;;;5044763;28;20256;-63
2023/07/06 08:13:53;;;;;;;6.43;2.30;;;27.30;77.10;;;;;;5039394;28;20288;-63
2023/07/06 08:16:23;;;;;;;5.47;1.97;;;27.20;76.60;;;;;;5042136;28;20646;-62
2023/07/06 08:18:55;;;;;;;4.60;1.93;;;27.20;76.90;;;;;;5044052;28;20210;-62
2023/07/06 08:21:42;;;;;;;2.10;1.90;;;27.20;76.90;;;;;;5041949;28;20201;-62
2023/07/06 08:24:29;;;;;;;2.23;2.03;;;27.20;76.60;;;;;;5038589;28;20207;-62
2023/07/06 08:26:58;;;;;;;4.67;1.97;;;27.20;76.20;;;;;;5036414;28;20239;-63
2023/07/06 08:29:26;;;;;;;1.80;1.43;;;27.20;76.00;;;;;;5039331;28;20206;-63
2023/07/06 08:31:56;;;;;;;2.83;2.03;;;27.20;72.90;;;;;;5044904;28;20199;-63
2023/07/06 08:34:26;;;;;;;2.80;1.50;;;27.00;71.70;;;;;;5046394;28;20273;-62
2023/07/06 08:36:53;;;;;;;1.80;1.57;;;26.80;72.30;;;;;;5044626;28;21023;-63
2023/07/06 08:39:20;;;;;;;3.27;1.60;;;26.70;72.20;;;;;;5028067;28;20190;-62
2023/07/06 08:41:49;;;;;;;2.33;1.60;;;26.60;71.60;;;;;;5041025;28;20207;-63
2023/07/06 08:44:17;;;;;;;1.93;1.70;;;26.60;71.70;;;;;;5043202;28;20191;-63
2023/07/06 08:46:50;;;;;;;1.87;1.50;;;26.60;71.50;;;;;;5045811;28;20206;-63
2023/07/06 08:49:29;;;;;;;2.47;1.50;;;26.70;71.90;;;;;;5035321;28;20198;-62
2023/07/06 08:52:05;;;;;;;3.10;1.53;;;26.70;71.90;;;;;;5045292;28;20199;-62
2023/07/06 08:54:36;;;;;;;2.47;1.60;;;26.70;71.00;;;;;;5048071;28;20268;-63
2023/07/06 08:57:15;;;;;;;3.33;1.60;;;26.80;71.60;;;;;;5050472;28;20607;-62
2023/07/06 08:59:48;;;;;;;3.03;2.00;;;26.90;71.70;;;;;;5050150;28;20193;-63
2023/07/06 09:02:25;;;;;;;2.17;1.53;;;26.90;70.90;;;;;;5049087;28;20189;-62
2023/07/06 09:04:56;;;;;;;2.73;2.03;;;26.90;70.20;;;;;;5049018;28;20675;-62
2023/07/06 09:07:36;;;;;;;3.07;1.73;;;27.00;70.80;;;;;;5044699;28;20525;-62
2023/07/06 09:10:12;;;;;;;5.20;2.13;;;27.00;70.70;;;;;;5043234;28;20207;-63
2023/07/06 09:12:53;;;;;;;2.93;2.57;;;27.00;70.90;;;;;;5048177;28;20256;-63
2023/07/06 09:15:27;;;;;;;7.20;1.70;;;27.10;71.10;;;;;;5047802;28;20209;-62
2023/07/06 09:17:59;;;;;;;2.90;1.70;;;27.10;70.50;;;;;;5043099;28;20215;-63
2023/07/06 09:20:27;;;;;;;3.03;1.93;;;27.20;70.50;;;;;;5049832;28;20277;-63
2023/07/06 09:22:54;;;;;;;2.90;1.67;;;27.30;70.60;;;;;;5041625;28;20197;-63
2023/07/06 09:25:28;;;;;;;2.00;1.57;;;27.50;70.80;;;;;;5041351;28;20221;-62
2023/07/06 09:27:58;;;;;;;4.20;1.97;;;27.60;70.10;;;;;;5047988;28;20722;-62
2023/07/06 09:30:32;;;;;;;4.33;2.33;;;27.70;69.10;;;;;;5048862;28;20201;-63
2023/07/06 09:33:13;;;;;;;1.83;1.57;;;27.80;69.00;;;;;;5035817;28;20298;-63
2023/07/06 09:35:41;;;;;;;10.33;1.90;;;27.90;68.40;;;;;;5042561;28;20515;-63
2023/07/06 09:38:13;;;;;;;5.17;2.07;;;28.00;66.80;;;;;;5042949;28;20210;-63
2023/07/06 09:40:43;;;;;;;3.80;3.00;;;27.90;67.30;;;;;;5045232;28;20210;-62
2023/07/06 09:43:28;;;;;;;2.37;1.70;;;27.90;66.90;;;;;;5046299;28;20641;-62
2023/07/06 09:45:59;;;;;;;3.17;1.60;;;27.90;67.30;;;;;;5050168;28;20209;-63
2023/07/06 09:48:32;;;;;;;2.23;1.40;;;27.80;67.70;;;;;;5045416;28;20205;-63
2023/07/06 09:51:11;;;;;;;1.80;1.60;;;27.80;68.20;;;;;;5037336;28;20253;-63
2023/07/06 09:53:51;;;;;;;5.23;2.10;;;27.80;68.20;;;;;;5045832;28;20213;-62
2023/07/06 09:56:18;;;;;;;1.90;1.53;;;27.80;68.40;;;;;;5042507;28;20226;-62
2023/07/06 09:58:50;;;;;;;5.10;1.77;;;27.70;67.90;;;;;;5044936;28;20194;-63
2023/07/06 10:01:27;;;;;;;4.03;1.60;;;27.70;66.70;;;;;;5046524;28;20601;-63
2023/07/06 10:04:03;;;;;;;2.83;1.93;;;27.60;66.20;;;;;;5040438;28;20195;-62
2023/07/06 10:06:57;;;;;;;3.97;1.50;;;27.50;66.60;;;;;;5047879;28;20233;-63
2023/07/06 10:09:28;;;;;;;2.07;1.87;;;27.30;66.60;;;;;;5044496;28;20207;-63
2023/07/06 10:12:06;;;;;;;4.60;1.77;;;27.30;67.30;;;;;;5037455;28;20626;-62
2023/07/06 10:14:47;;;;;;;5.77;1.50;;;27.20;67.80;;;;;;5044876;28;20236;-62
2023/07/06 10:17:37;;;;;;;2.00;1.60;;;27.10;68.40;;;;;;5044615;28;20207;-62
2023/07/06 10:20:10;;;;;;;2.87;1.70;;;27.10;69.10;;;;;;5047664;28;20220;-62
2023/07/06 10:23:04;;;;;;;3.97;1.50;;;27.10;69.70;;;;;;5029274;28;20205;-62
2023/07/06 10:25:43;;;;;;;3.27;2.00;;;27.00;69.70;;;;;;5043326;28;20282;-63
2023/07/06 10:28:16;;;;;;;6.93;2.00;;;26.90;69.70;;;;;;5058656;28;20238;-63
2023/07/06 10:30:47;;;;;;;1.90;1.80;;;26.80;70.10;;;;;;5027130;28;20199;-63
2023/07/06 10:33:25;;;;;;;8.07;2.00;;;26.60;69.70;;;;;;5025459;28;20212;-62
2023/07/06 10:35:52;;;;;;;3.80;2.27;;;26.40;70.20;;;;;;5020034;28;20207;-62
2023/07/06 10:38:20;;;;;;;5.33;1.50;;;26.40;71.10;;;;;;5021985;28;20231;-62
2023/07/06 10:41:11;;;;;;;5.57;1.90;;;26.30;71.50;;;;;;5024167;28;20595;-62
2023/07/06 10:43:43;;;;;;;4.27;1.80;;;26.20;71.70;;;;;;5024502;28;20246;-63
2023/07/06 10:46:33;;;;;;;2.77;2.00;;;26.00;72.10;;;;;;5022387;28;20293;-62
2023/07/06 10:49:21;;;;;;;4.23;2.17;;;25.90;73.20;;;;;;5020974;28;20287;-62
2023/07/06 10:51:53;;;;;;;3.60;1.80;;;25.90;73.80;;;;;;5021019;28;20223;-63
2023/07/06 10:54:33;;;;;;;7.80;1.90;;;25.90;73.30;;;;;;5025709;28;20207;-63
2023/07/06 10:57:10;;;;;;;3.40;1.97;;;25.90;72.80;;;;;;5025032;28;20218;-62
2023/07/06 10:59:45;;;;;;;1.90;1.70;;;25.80;72.10;;;;;;5031036;28;20200;-63
2023/07/06 11:02:19;;;;;;;2.43;2.00;;;25.80;71.80;;;;;;5028252;28;20298;-62
2023/07/06 11:05:08;;;;;;;3.07;1.60;;;25.80;71.60;;;;;;5028763;28;20203;-62
2023/07/06 11:07:42;;;;;;;1.87;1.57;;;25.80;72.00;;;;;;5023944;28;20202;-62
2023/07/06 11:10:21;;;;;;;3.47;1.80;;;25.80;71.80;;;;;;5020916;28;20214;-63
2023/07/06 11:13:01;;;;;;;3.47;1.70;;;25.80;71.80;;;;;;5020277;28;20203;-63
2023/07/06 11:15:48;;;;;;;3.03;1.83;;;25.80;72.40;;;;;;5021387;28;20208;-63
2023/07/06 11:18:23;;;;;;;2.07;1.70;;;25.90;72.70;;;;;;5020296;28;20207;-63
2023/07/06 11:21:13;;;;;;;2.10;1.90;;;25.90;72.60;;;;;;5023954;28;20218;-63
2023/07/06 11:23:48;;;;;;;2.17;1.53;;;26.00;72.30;;;;;;5006002;28;20219;-62
2023/07/06 11:26:34;;;;;;;3.57;1.60;;;25.90;72.60;;;;;;5019181;28;20198;-63
2023/07/06 11:29:08;;;;;;;2.20;1.87;;;25.90;73.20;;;;;;5046828;28;20192;-62
2023/07/06 11:31:50;;;;;;;3.33;2.03;;;25.80;74.00;;;;;;5045329;28;20194;-63
2023/07/06 11:34:46;;;;;;;3.20;1.90;;;25.70;75.30;;;;;;5044450;28;20208;-63
2023/07/06 11:37:40;;;;;;;2.10;1.60;;;25.60;75.40;;;;;;5041698;28;20214;-62
2023/07/06 11:40:41;;;;;;;1.90;1.60;;;25.60;75.30;;;;;;5047220;28;20217;-63
2023/07/06 11:43:44;;;;;;;2.60;2.00;;;25.50;74.20;;;;;;5042961;28;20232;-62
2023/07/06 11:46:49;;;;;;;5.17;1.50;;;25.40;74.30;;;;;;5040209;28;20304;-62
2023/07/06 11:49:16;;;;;;;3.47;2.10;;;25.50;74.40;;;;;;5026568;28;20214;-62
2023/07/06 11:51:47;;;;;;;1.90;1.67;;;25.60;74.60;;;;;;5038282;28;20209;-63
2023/07/06 11:54:43;;;;;;;3.00;1.37;;;25.70;73.80;;;;;;5043270;28;20451;-63
2023/07/06 11:57:25;;;;;;;3.93;1.80;;;25.90;73.60;;;;;;5044466;28;20221;-62
2023/07/06 12:02:59;;;;;;;4.30;2.00;;;26.00;72.80;;;;;;5043434;28;20547;-63
2023/07/06 12:05:29;;;;;;;2.30;1.67;;;26.00;72.30;;;;;;5044504;28;20206;-63
2023/07/06 12:08:03;;;;;;;2.93;1.93;;;26.00;72.60;;;;;;5046679;28;20602;-63
2023/07/06 12:10:33;;;;;;;2.97;1.77;;;26.00;72.70;;;;;;5039572;28;20260;-63
2023/07/06 12:13:04;;;;;;;4.40;1.73;;;25.90;72.40;;;;;;5036872;28;20561;-63
2023/07/06 12:15:32;;;;;;;2.20;2.00;;;25.80;73.00;;;;;;5040392;28;20285;-63
2023/07/06 12:18:01;;;;;;;2.23;1.83;;;25.80;73.90;;;;;;5045807;28;20589;-62
2023/07/06 12:20:31;;;;;;;3.03;2.10;;;25.90;74.30;;;;;;5043156;28;20630;-62
2023/07/06 12:22:59;;;;;;;7.33;2.23;;;26.10;74.60;;;;;;5040548;28;20194;-62
2023/07/06 12:25:30;;;;;;;2.60;1.80;;;26.20;73.20;;;;;;5043925;28;20627;-63
2023/07/06 12:28:00;;;;;;;3.73;2.33;;;26.40;73.40;;;;;;5041915;28;20235;-62
2023/07/06 12:30:33;;;;;;;3.50;2.10;;;26.60;73.00;;;;;;5043887;28;20213;-63
2023/07/06 12:33:04;;;;;;;4.40;1.90;;;26.60;73.10;;;;;;5046360;28;20706;-63
2023/07/06 12:35:35;;;;;;;6.90;2.23;;;26.90;73.90;;;;;;5038424;28;20206;-63
2023/07/06 12:38:09;;;;;;;2.90;2.27;;;27.20;73.50;;;;;;5039697;28;20253;-63
2023/07/06 12:40:39;;;;;;;3.40;2.63;;;27.30;72.30;;;;;;5043651;28;20201;-63
2023/07/06 12:43:28;;;;;;;5.00;1.90;;;27.50;71.90;;;;;;5043964;28;20213;-63
2023/07/06 12:45:55;;;;;;;3.70;2.10;;;27.60;70.00;;;;;;5040863;28;20202;-62
2023/07/06 12:48:24;;;;;;;2.43;2.23;;;27.60;69.70;;;;;;5037661;28;20285;-63
2023/07/06 12:50:54;;;;;;;2.73;2.10;;;27.70;69.00;;;;;;5038318;28;20219;-62
2023/07/06 12:53:26;;;;;;;3.10;2.20;;;27.70;69.50;;;;;;5041159;28;20228;-63
2023/07/06 12:56:14;;;;;;;4.20;1.97;;;27.80;69.70;;;;;;5045276;28;20648;-63
2023/07/06 12:59:03;;;;;;;3.90;2.30;;;27.90;69.20;;;;;;5041518;28;20569;-63
2023/07/06 13:01:34;;;;;;;3.50;2.30;;;28.00;69.20;;;;;;5045906;28;20206;-63
2023/07/06 13:04:09;;;;;;;6.50;2.70;;;28.10;68.70;;;;;;5040608;28;20233;-63
2023/07/06 13:06:53;;;;;;;3.00;2.27;;;28.20;68.70;;;;;;5030653;28;20197;-62
2023/07/06 13:09:34;;;;;;;5.13;2.50;;;28.20;69.10;;;;;;5043424;28;20194;-63
2023/07/06 13:12:09;;;;;;;5.10;2.30;;;28.10;69.30;;;;;;5037063;28;20195;-63
2023/07/06 13:14:40;;;;;;;3.03;2.13;;;28.10;69.50;;;;;;5035469;28;20212;-62
2023/07/06 13:17:16;;;;;;;2.40;2.20;;;28.30;69.90;;;;;;5038904;28;20305;-62